Time;durP1;ratioP1;P1;durP2;ratioP2;P2;SDS_P1;SDS_P2;PMS_P1;PMS_P2;Temp;Humidity;BMP_temperature;BMP_pressure;BME280_temperature;BME280_humidity;BME280_pressure;Samples;Min_cycle;Max_cycle;Signal;HPM_P1;HPM_P2
2021/03/31 00:00:29;;;;;;;41.63;18.03;;;11.00;99.90;;;;;;4959232;29;20240;-82
2021/03/31 00:03:18;;;;;;;34.53;17.97;;;10.90;99.90;;;;;;4949234;29;20275;-80
2021/03/31 00:06:03;;;;;;;38.73;19.43;;;10.90;99.90;;;;;;4957213;29;20218;-83
2021/03/31 00:08:48;;;;;;;42.20;19.77;;;10.90;99.90;;;;;;4964746;29;20211;-85
2021/03/31 00:11:32;;;;;;;37.60;18.53;;;11.00;99.90;;;;;;4962076;28;20229;-81
2021/03/31 00:14:17;;;;;;;34.77;17.57;;;10.90;99.90;;;;;;4960738;29;20463;-80
2021/03/31 00:17:03;;;;;;;38.90;19.43;;;10.90;99.90;;;;;;4962216;29;20242;-82
2021/03/31 00:19:48;;;;;;;39.03;18.90;;;10.90;99.90;;;;;;4963920;29;20223;-82
2021/03/31 00:22:33;;;;;;;37.23;19.07;;;10.90;99.90;;;;;;4970042;28;20230;-81
2021/03/31 00:25:18;;;;;;;38.33;18.77;;;10.90;99.90;;;;;;4963492;28;20214;-83
2021/03/31 00:28:04;;;;;;;35.97;18.50;;;10.90;99.90;;;;;;4959778;28;20229;-82
2021/03/31 00:30:50;;;;;;;36.57;18.23;;;10.90;99.90;;;;;;4963295;28;20713;-81
2021/03/31 00:33:35;;;;;;;35.73;18.37;;;10.90;99.90;;;;;;4964130;28;20252;-82
2021/03/31 00:36:21;;;;;;;38.63;20.20;;;10.90;99.90;;;;;;4961868;29;20752;-81
2021/03/31 00:39:07;;;;;;;37.90;18.70;;;10.90;99.90;;;;;;4968134;28;20269;-83
2021/03/31 00:41:52;;;;;;;35.87;18.77;;;10.90;99.90;;;;;;4962862;28;20255;-83
2021/03/31 00:44:37;;;;;;;31.60;16.43;;;10.90;99.90;;;;;;4966490;28;20218;-82
2021/03/31 00:47:22;;;;;;;38.47;18.97;;;10.90;99.90;;;;;;4965655;28;20247;-83
2021/03/31 00:50:09;;;;;;;34.07;18.43;;;10.90;99.90;;;;;;4970177;29;20326;-85
2021/03/31 00:52:58;;;;;;;36.87;17.67;;;10.80;99.90;;;;;;4963310;29;20257;-82
2021/03/31 00:55:43;;;;;;;35.73;18.20;;;10.80;99.90;;;;;;4952072;28;20636;-82
2021/03/31 00:58:31;;;;;;;31.27;17.13;;;10.80;99.90;;;;;;4969377;28;20218;-82
2021/03/31 01:01:16;;;;;;;34.33;19.10;;;10.70;99.90;;;;;;4957280;28;20254;-82
2021/03/31 01:04:01;;;;;;;36.03;19.03;;;10.70;99.90;;;;;;4964535;28;20561;-81
2021/03/31 01:06:46;;;;;;;32.23;17.77;;;10.70;99.90;;;;;;4964200;28;20213;-83
2021/03/31 01:09:32;;;;;;;33.27;19.33;;;10.60;99.90;;;;;;4959542;28;20560;-81
2021/03/31 01:12:27;;;;;;;34.17;19.53;;;10.50;99.90;;;;;;4963798;28;20239;-82
2021/03/31 01:15:17;;;;;;;37.63;20.23;;;10.50;99.90;;;;;;4965705;28;20210;-82
2021/03/31 01:18:07;;;;;;;37.40;19.43;;;10.50;99.90;;;;;;4966607;28;20693;-82
2021/03/31 01:21:29;;;;;;;35.53;19.87;;;10.40;99.90;;;;;;4960803;28;20234;-83
2021/03/31 01:24:56;;;;;;;38.07;20.27;;;10.40;99.90;;;;;;4958479;29;20785;-82
2021/03/31 01:28:09;;;;;;;41.27;23.00;;;10.30;99.90;;;;;;4935913;29;20218;-81
2021/03/31 01:31:04;;;;;;;40.60;22.03;;;10.30;99.90;;;;;;4951982;28;20223;-82
2021/03/31 01:34:12;;;;;;;42.97;21.63;;;10.20;99.90;;;;;;4963767;28;20230;-83
2021/03/31 01:37:02;;;;;;;41.00;22.50;;;10.10;99.90;;;;;;4950225;28;20214;-82
2021/03/31 01:39:48;;;;;;;44.03;21.50;;;10.10;99.90;;;;;;4953009;29;20279;-81
2021/03/31 01:42:37;;;;;;;41.70;22.03;;;10.00;99.90;;;;;;4961394;29;20758;-83
2021/03/31 01:45:26;;;;;;;41.57;22.33;;;10.00;99.90;;;;;;4961485;28;20239;-85
2021/03/31 01:48:15;;;;;;;38.57;21.83;;;10.00;99.90;;;;;;4961175;29;20222;-84
2021/03/31 01:51:03;;;;;;;40.97;22.43;;;10.00;99.90;;;;;;4958773;28;20235;-81
2021/03/31 01:53:50;;;;;;;43.40;22.60;;;9.90;99.90;;;;;;4961507;28;20214;-81
2021/03/31 01:56:35;;;;;;;42.63;21.53;;;9.80;99.90;;;;;;4955994;29;20711;-80
2021/03/31 01:59:22;;;;;;;41.43;22.57;;;9.80;99.90;;;;;;4956857;28;20282;-83
2021/03/31 02:02:11;;;;;;;44.77;21.97;;;9.70;99.90;;;;;;4958668;28;20259;-79
2021/03/31 02:04:56;;;;;;;40.07;22.43;;;9.70;99.90;;;;;;4956527;28;20211;-83
2021/03/31 02:07:42;;;;;;;38.87;22.03;;;9.70;99.90;;;;;;4955302;29;20499;-81
2021/03/31 02:10:28;;;;;;;49.70;22.83;;;9.60;99.90;;;;;;4960506;28;20205;-80
2021/03/31 02:13:14;;;;;;;38.60;22.30;;;9.50;99.90;;;;;;4960607;28;20210;-80
2021/03/31 02:16:01;;;;;;;41.53;22.67;;;9.50;99.90;;;;;;4954844;29;20232;-82
2021/03/31 02:18:47;;;;;;;41.03;21.93;;;9.40;99.90;;;;;;4955240;29;20219;-82
2021/03/31 02:21:33;;;;;;;42.93;21.77;;;9.40;99.90;;;;;;4960058;28;20668;-82
2021/03/31 02:24:20;;;;;;;43.40;21.13;;;9.30;99.90;;;;;;4957468;29;20215;-81
2021/03/31 02:27:07;;;;;;;37.90;20.90;;;9.30;99.90;;;;;;4957932;28;20272;-81
2021/03/31 02:29:53;;;;;;;40.37;21.27;;;9.20;99.90;;;;;;4956065;28;20221;-83
2021/03/31 02:32:41;;;;;;;37.00;20.30;;;9.10;99.90;;;;;;4963161;28;20249;-82
2021/03/31 02:35:29;;;;;;;41.30;21.87;;;9.10;99.90;;;;;;4960528;28;20227;-83
2021/03/31 02:38:16;;;;;;;42.80;22.77;;;9.00;99.90;;;;;;4962644;29;20239;-81
2021/03/31 02:41:03;;;;;;;38.00;20.97;;;8.80;99.90;;;;;;4960283;28;20281;-81
2021/03/31 02:43:50;;;;;;;41.77;21.70;;;8.90;99.90;;;;;;4961920;28;20748;-81
2021/03/31 02:46:38;;;;;;;43.00;22.37;;;8.80;99.90;;;;;;4959305;29;20214;-82
2021/03/31 02:49:27;;;;;;;44.57;23.70;;;8.80;99.90;;;;;;4957954;28;20214;-82
2021/03/31 02:52:14;;;;;;;44.00;22.93;;;8.70;99.90;;;;;;4962747;28;20733;-80
2021/03/31 02:55:01;;;;;;;47.63;23.87;;;8.60;99.90;;;;;;4960333;28;20287;-83
2021/03/31 02:57:48;;;;;;;45.07;24.00;;;8.60;99.90;;;;;;4954867;28;20263;-80
2021/03/31 03:00:34;;;;;;;46.97;24.13;;;8.50;99.90;;;;;;4965503;28;20235;-81
2021/03/31 03:03:20;;;;;;;40.20;24.23;;;8.50;99.90;;;;;;4960171;28;20270;-81
2021/03/31 03:06:06;;;;;;;43.47;24.37;;;8.40;99.90;;;;;;4951347;29;20203;-83
2021/03/31 03:08:52;;;;;;;41.87;22.73;;;8.40;99.90;;;;;;4957960;29;20223;-81
2021/03/31 03:11:38;;;;;;;42.53;22.33;;;8.30;99.90;;;;;;4954809;28;20270;-81
2021/03/31 03:14:24;;;;;;;42.10;22.03;;;8.30;99.90;;;;;;4961732;28;20239;-79
2021/03/31 03:17:10;;;;;;;38.83;20.87;;;8.30;99.90;;;;;;4954568;29;20206;-80
2021/03/31 03:19:55;;;;;;;36.63;19.90;;;8.20;99.90;;;;;;4962961;28;20581;-79
2021/03/31 03:22:43;;;;;;;45.00;22.43;;;8.20;99.90;;;;;;4954828;29;20586;-83
2021/03/31 03:25:28;;;;;;;39.60;21.20;;;8.10;99.90;;;;;;4952705;29;20218;-82
2021/03/31 03:28:18;;;;;;;43.50;20.80;;;8.10;99.90;;;;;;4956834;29;20210;-84
2021/03/31 03:31:03;;;;;;;45.37;22.87;;;8.00;99.90;;;;;;4954918;29;20243;-81
2021/03/31 03:33:50;;;;;;;43.83;22.17;;;7.90;99.90;;;;;;4957994;29;20720;-80
2021/03/31 03:36:36;;;;;;;41.97;22.20;;;7.90;99.90;;;;;;4960308;28;20214;-79
2021/03/31 03:39:21;;;;;;;42.80;22.17;;;7.90;99.90;;;;;;4959426;29;20282;-80
2021/03/31 03:42:07;;;;;;;44.40;23.23;;;7.80;99.90;;;;;;4958115;28;20234;-79
2021/03/31 03:44:52;;;;;;;43.27;23.83;;;7.70;99.90;;;;;;4962320;28;20226;-84
2021/03/31 03:47:39;;;;;;;46.23;24.93;;;7.70;99.90;;;;;;4938990;29;20286;-79
2021/03/31 03:50:26;;;;;;;48.67;26.10;;;7.70;99.90;;;;;;4947636;29;20271;-80
2021/03/31 03:53:11;;;;;;;50.27;26.37;;;7.70;99.90;;;;;;4944483;29;20218;-79
2021/03/31 03:55:59;;;;;;;51.83;26.67;;;7.60;99.90;;;;;;4949074;29;20217;-81
2021/03/31 03:58:43;;;;;;;50.47;26.47;;;7.60;99.90;;;;;;4951687;29;20627;-79
2021/03/31 04:01:28;;;;;;;52.60;27.67;;;7.60;99.90;;;;;;4957352;28;20612;-81
2021/03/31 04:04:13;;;;;;;45.63;25.47;;;7.60;99.90;;;;;;4949980;28;20234;-86
2021/03/31 04:07:01;;;;;;;45.87;24.70;;;7.60;99.90;;;;;;4955562;29;20298;-80
2021/03/31 04:09:48;;;;;;;53.57;25.57;;;7.50;99.90;;;;;;4957281;28;20232;-79
2021/03/31 04:12:34;;;;;;;47.50;25.53;;;7.50;99.90;;;;;;4957327;29;20309;-82
2021/03/31 04:15:20;;;;;;;46.83;24.17;;;7.50;99.90;;;;;;4955283;29;20217;-79
2021/03/31 04:18:07;;;;;;;47.90;24.60;;;7.40;99.90;;;;;;4950134;29;20214;-84
2021/03/31 04:20:52;;;;;;;47.20;24.30;;;7.40;99.90;;;;;;4960536;28;20311;-82
2021/03/31 04:23:39;;;;;;;41.77;22.83;;;7.40;99.90;;;;;;4950073;29;20242;-82
2021/03/31 04:26:24;;;;;;;40.03;21.77;;;7.30;99.90;;;;;;4953823;29;20231;-82
2021/03/31 04:29:09;;;;;;;39.57;23.00;;;7.30;99.90;;;;;;4953561;29;20261;-80
2021/03/31 04:31:54;;;;;;;39.90;23.03;;;7.30;99.90;;;;;;4951113;29;20233;-81
2021/03/31 04:34:40;;;;;;;41.53;23.07;;;7.20;99.90;;;;;;4951125;29;20230;-82
2021/03/31 04:37:25;;;;;;;42.50;23.53;;;7.20;99.90;;;;;;4948403;28;20234;-79
2021/03/31 04:40:13;;;;;;;44.87;23.43;;;7.10;99.90;;;;;;4942714;28;20259;-81
2021/03/31 04:42:58;;;;;;;43.03;22.13;;;7.10;99.90;;;;;;4946644;29;20239;-79
2021/03/31 04:45:43;;;;;;;43.03;22.97;;;7.00;99.90;;;;;;4954826;28;20225;-81
2021/03/31 04:48:28;;;;;;;43.37;22.60;;;7.00;99.90;;;;;;4956989;28;20241;-79
2021/03/31 04:51:13;;;;;;;45.87;22.90;;;7.00;99.90;;;;;;4947735;28;20227;-78
2021/03/31 04:53:57;;;;;;;44.27;21.90;;;6.90;99.90;;;;;;4954118;28;20214;-80
2021/03/31 04:56:43;;;;;;;41.07;21.87;;;6.90;99.90;;;;;;4953828;28;20210;-79
2021/03/31 04:59:28;;;;;;;39.20;22.17;;;6.80;99.90;;;;;;4957595;28;20242;-82
2021/03/31 05:02:13;;;;;;;41.83;21.13;;;6.80;99.90;;;;;;4974771;28;20226;-85
2021/03/31 05:04:57;;;;;;;45.37;21.93;;;6.80;99.90;;;;;;4971447;28;20218;-85
2021/03/31 05:07:42;;;;;;;42.47;23.10;;;6.70;99.90;;;;;;4968085;28;20202;-80
2021/03/31 05:10:28;;;;;;;40.60;21.77;;;6.70;99.90;;;;;;4973487;28;20203;-82
2021/03/31 05:13:15;;;;;;;48.63;23.43;;;6.60;99.90;;;;;;4961867;28;20213;-82
2021/03/31 05:16:00;;;;;;;48.70;25.90;;;6.60;99.90;;;;;;4963202;28;20267;-83
2021/03/31 05:18:45;;;;;;;52.77;25.97;;;6.60;99.90;;;;;;4961406;28;20228;-80
2021/03/31 05:21:30;;;;;;;50.33;26.27;;;6.60;99.90;;;;;;4966143;28;20688;-83
2021/03/31 05:24:15;;;;;;;47.53;26.03;;;6.50;99.90;;;;;;4961422;28;20523;-84
2021/03/31 05:27:00;;;;;;;50.53;26.00;;;6.50;99.90;;;;;;4962758;28;20261;-82
2021/03/31 05:29:46;;;;;;;49.40;26.10;;;6.50;99.90;;;;;;4959592;28;20202;-81
2021/03/31 05:32:31;;;;;;;45.17;24.80;;;6.50;99.90;;;;;;4960656;28;20281;-81
2021/03/31 05:35:16;;;;;;;45.70;24.13;;;6.50;99.90;;;;;;4955801;28;20231;-83
2021/03/31 05:38:01;;;;;;;52.53;26.23;;;6.50;99.90;;;;;;4965531;28;20256;-83
2021/03/31 05:40:46;;;;;;;53.17;26.20;;;6.50;99.90;;;;;;4964382;28;20217;-81
2021/03/31 05:43:32;;;;;;;48.87;26.17;;;6.40;99.90;;;;;;4961211;28;20213;-81
2021/03/31 05:46:18;;;;;;;50.13;26.00;;;6.50;99.90;;;;;;4944499;29;20287;-83
2021/03/31 05:49:03;;;;;;;48.07;27.03;;;6.40;99.90;;;;;;4950178;29;20224;-84
2021/03/31 05:51:49;;;;;;;53.40;27.90;;;6.40;99.90;;;;;;4946800;29;20247;-83
2021/03/31 05:54:33;;;;;;;51.67;26.73;;;6.40;99.90;;;;;;4951277;29;20263;-83
2021/03/31 05:57:22;;;;;;;53.73;28.33;;;6.40;99.90;;;;;;4950254;29;20230;-80
2021/03/31 06:00:10;;;;;;;53.63;28.87;;;6.40;99.90;;;;;;4952298;29;20258;-82
2021/03/31 06:02:56;;;;;;;50.87;26.63;;;6.50;99.90;;;;;;4953584;29;20233;-84
2021/03/31 06:05:42;;;;;;;58.30;30.03;;;6.50;99.90;;;;;;4949002;28;20256;-81
2021/03/31 06:08:27;;;;;;;55.00;29.07;;;6.50;99.90;;;;;;4931882;29;20620;-83
2021/03/31 06:11:15;;;;;;;56.83;28.53;;;6.50;99.90;;;;;;4942639;29;20804;-82
2021/03/31 06:14:01;;;;;;;53.07;28.10;;;6.50;99.90;;;;;;4946100;29;20251;-86
2021/03/31 06:16:47;;;;;;;51.30;28.37;;;6.50;99.90;;;;;;4956935;28;20213;-81
2021/03/31 06:19:34;;;;;;;57.90;30.60;;;6.50;99.90;;;;;;4950888;29;20275;-84
2021/03/31 06:22:30;;;;;;;54.70;29.87;;;6.60;99.90;;;;;;4948688;28;20241;-83
2021/03/31 06:25:17;;;;;;;56.90;28.80;;;6.60;99.90;;;;;;4946616;29;20217;-85
2021/03/31 06:28:05;;;;;;;52.20;28.57;;;6.60;99.90;;;;;;4951069;29;20230;-81
2021/03/31 06:30:49;;;;;;;57.20;30.20;;;6.60;99.90;;;;;;4953576;29;20207;-85
2021/03/31 06:33:36;;;;;;;55.80;30.63;;;6.70;99.90;;;;;;4950594;29;20207;-83
2021/03/31 06:36:34;;;;;;;54.10;28.77;;;6.70;99.90;;;;;;4946888;29;20227;-81
2021/03/31 06:39:25;;;;;;;61.37;31.30;;;6.80;99.90;;;;;;4952431;28;20215;-84
2021/03/31 06:42:12;;;;;;;61.07;30.17;;;6.80;99.90;;;;;;4958148;29;20250;-83
2021/03/31 06:45:01;;;;;;;55.00;29.70;;;6.90;99.90;;;;;;4949723;28;20697;-82
2021/03/31 06:47:50;;;;;;;53.80;29.63;;;6.90;99.90;;;;;;4953639;28;20215;-81
2021/03/31 06:50:37;;;;;;;58.53;29.60;;;7.00;99.90;;;;;;4953139;29;22098;-80
2021/03/31 06:53:27;;;;;;;56.23;28.07;;;7.10;99.90;;;;;;4949019;29;20701;-82
2021/03/31 06:56:12;;;;;;;49.50;27.77;;;7.10;99.90;;;;;;4953988;28;20259;-81
2021/03/31 06:59:01;;;;;;;53.67;29.53;;;7.20;99.90;;;;;;4957740;28;20270;-83
2021/03/31 07:01:47;;;;;;;63.50;29.70;;;7.30;99.90;;;;;;4950424;29;20311;-83
2021/03/31 07:04:36;;;;;;;48.63;27.80;;;7.30;99.90;;;;;;4955739;29;20527;-83
2021/03/31 07:07:30;;;;;;;44.63;26.90;;;7.40;99.90;;;;;;4949604;28;20732;-86
2021/03/31 07:10:19;;;;;;;46.23;25.93;;;7.50;99.90;;;;;;4957841;29;20498;-83
2021/03/31 07:13:05;;;;;;;43.83;24.73;;;7.60;99.90;;;;;;4953236;29;20206;-82
2021/03/31 07:15:50;;;;;;;43.57;23.90;;;7.70;99.90;;;;;;4961398;29;20582;-80
2021/03/31 07:18:36;;;;;;;43.67;23.63;;;7.80;99.90;;;;;;4951742;28;20222;-82
2021/03/31 07:21:21;;;;;;;41.40;22.50;;;7.90;99.90;;;;;;4957884;28;20257;-84
2021/03/31 07:24:07;;;;;;;38.27;20.90;;;8.00;99.90;;;;;;4973227;23;20269;-77
2021/03/31 07:26:54;;;;;;;40.87;21.23;;;8.10;99.90;;;;;;4970235;28;20289;-78
2021/03/31 07:30:05;;;;;;;40.60;19.73;;;8.30;99.90;;;;;;4967847;28;20252;-78
2021/03/31 07:32:51;;;;;;;30.60;17.90;;;8.40;99.90;;;;;;4976255;28;20224;-79
2021/03/31 07:35:37;;;;;;;30.30;15.27;;;8.60;99.90;;;;;;4971472;28;20208;-79
2021/03/31 07:38:26;;;;;;;24.20;13.90;;;8.70;99.90;;;;;;4962561;28;20304;-78
2021/03/31 07:41:11;;;;;;;22.70;12.53;;;8.90;99.90;;;;;;4974260;28;20249;-78
2021/03/31 07:43:59;;;;;;;20.80;12.47;;;9.00;99.90;;;;;;4975005;28;20265;-78
2021/03/31 07:46:45;;;;;;;22.67;11.60;;;9.30;99.90;;;;;;4966256;28;20444;-78
2021/03/31 07:49:33;;;;;;;17.97;10.40;;;9.50;99.90;;;;;;4966106;28;20209;-79
2021/03/31 07:52:18;;;;;;;18.67;10.97;;;9.70;99.90;;;;;;4964574;28;20223;-79
2021/03/31 07:55:28;;;;;;;18.23;11.90;;;10.00;99.90;;;;;;4970487;28;20472;-79
2021/03/31 07:58:28;;;;;;;18.50;10.00;;;10.30;99.90;;;;;;4965296;28;20286;-79
2021/03/31 08:01:14;;;;;;;24.00;11.93;;;10.60;99.90;;;;;;4957234;28;20218;-79
2021/03/31 08:03:58;;;;;;;19.27;11.70;;;10.80;99.90;;;;;;4973073;28;20305;-78
2021/03/31 08:06:44;;;;;;;18.10;10.90;;;11.10;99.90;;;;;;4973680;28;20402;-79
2021/03/31 08:09:30;;;;;;;18.77;10.93;;;11.30;99.90;;;;;;4977087;28;20236;-79
2021/03/31 08:12:29;;;;;;;19.43;11.90;;;11.50;99.90;;;;;;4967564;28;20766;-79
2021/03/31 08:15:40;;;;;;;18.53;11.53;;;11.80;99.90;;;;;;4975141;28;20276;-79
2021/03/31 08:18:27;;;;;;;17.30;11.10;;;12.00;99.90;;;;;;4971234;28;20217;-79
2021/03/31 08:21:21;;;;;;;19.77;11.53;;;12.30;99.90;;;;;;4974234;28;20218;-79
2021/03/31 08:24:07;;;;;;;20.13;11.93;;;12.50;99.90;;;;;;4973622;28;20290;-79
2021/03/31 08:26:57;;;;;;;19.23;11.63;;;12.70;99.90;;;;;;4965894;28;20215;-79
2021/03/31 08:29:48;;;;;;;17.73;10.77;;;12.90;99.90;;;;;;4975365;28;20211;-78
2021/03/31 08:32:38;;;;;;;18.60;10.70;;;13.10;99.90;;;;;;4977017;28;20212;-80
2021/03/31 08:35:26;;;;;;;17.03;11.07;;;13.30;99.90;;;;;;4960915;28;20211;-79
2021/03/31 08:38:15;;;;;;;22.23;11.57;;;13.50;99.90;;;;;;4975270;28;20258;-78
2021/03/31 08:41:13;;;;;;;17.70;12.27;;;13.70;99.90;;;;;;4981001;28;20224;-79
2021/03/31 08:44:14;;;;;;;21.50;12.10;;;13.90;99.90;;;;;;4976341;28;20509;-79
2021/03/31 08:47:10;;;;;;;22.83;11.53;;;14.10;99.90;;;;;;4978601;28;20222;-79
2021/03/31 08:49:59;;;;;;;21.43;10.67;;;14.30;99.90;;;;;;4966559;28;20279;-79
2021/03/31 08:52:44;;;;;;;16.70;11.33;;;14.50;99.90;;;;;;4962823;28;20634;-79
2021/03/31 08:55:31;;;;;;;20.00;13.17;;;14.70;99.90;;;;;;4979090;28;20213;-79
2021/03/31 08:58:16;;;;;;;16.50;11.30;;;14.80;99.90;;;;;;4971908;28;20311;-79
2021/03/31 09:01:01;;;;;;;20.33;12.07;;;15.00;99.90;;;;;;4979065;28;20206;-78
2021/03/31 09:03:46;;;;;;;19.17;11.80;;;15.20;99.90;;;;;;4975023;28;20328;-79
2021/03/31 09:06:36;;;;;;;21.77;12.90;;;15.40;99.90;;;;;;4977634;28;20206;-79
2021/03/31 09:09:22;;;;;;;20.63;11.97;;;15.80;99.90;;;;;;4978378;28;20297;-80
2021/03/31 09:12:09;;;;;;;19.90;12.80;;;15.70;99.90;;;;;;4978282;28;20233;-79
2021/03/31 09:14:56;;;;;;;17.93;12.67;;;16.00;99.90;;;;;;4978195;28;20277;-80
2021/03/31 09:17:43;;;;;;;19.53;12.13;;;16.20;99.90;;;;;;4979194;28;20206;-80
2021/03/31 09:20:28;;;;;;;19.93;12.20;;;16.40;99.90;;;;;;4966748;28;20210;-80
2021/03/31 09:23:19;;;;;;;23.00;12.40;;;16.60;99.90;;;;;;4975867;28;20325;-80
2021/03/31 09:26:05;;;;;;;19.57;11.67;;;17.00;99.90;;;;;;4979153;28;20210;-80
2021/03/31 09:28:50;;;;;;;18.63;11.57;;;17.40;99.90;;;;;;4971416;28;20712;-80
2021/03/31 09:31:35;;;;;;;20.40;13.47;;;18.10;99.90;;;;;;4978241;28;20223;-80
2021/03/31 09:34:20;;;;;;;22.10;13.60;;;18.90;99.10;;;;;;4973818;28;20270;-80
2021/03/31 09:37:07;;;;;;;21.93;11.80;;;19.80;94.90;;;;;;4969227;28;20635;-81
2021/03/31 09:39:54;;;;;;;17.07;11.63;;;20.80;94.50;;;;;;4975630;28;20227;-80
2021/03/31 09:42:41;;;;;;;19.83;13.23;;;21.80;90.50;;;;;;4974181;28;20768;-77
2021/03/31 09:45:29;;;;;;;22.63;12.40;;;22.80;83.40;;;;;;4975291;28;20580;-79
2021/03/31 09:48:15;;;;;;;20.37;13.00;;;23.80;81.50;;;;;;4978036;28;20774;-78
2021/03/31 09:51:11;;;;;;;18.07;13.67;;;24.60;77.60;;;;;;4979637;28;20213;-79
2021/03/31 09:53:56;;;;;;;18.85;13.80;;;25.60;71.80;;;;;;4973039;28;20239;-79
2021/03/31 09:56:43;;;;;;;17.70;12.35;;;26.50;69.20;;;;;;4980000;28;20213;-78
2021/03/31 09:59:30;;;;;;;18.50;12.85;;;27.30;70.90;;;;;;4990511;28;20677;-78
2021/03/31 10:02:15;;;;;;;19.88;12.13;;;28.10;64.00;;;;;;4978131;28;20726;-79
2021/03/31 10:05:02;;;;;;;17.63;13.18;;;29.00;65.00;;;;;;4970176;28;20279;-78
2021/03/31 10:07:57;;;;;;;20.13;13.60;;;29.80;58.90;;;;;;4979085;28;20240;-79
2021/03/31 10:10:44;;;;;;;16.88;13.20;;;30.50;58.00;;;;;;4980140;28;20225;-79
2021/03/31 10:13:35;;;;;;;19.73;13.98;;;31.30;54.60;;;;;;4971337;28;20313;-78
2021/03/31 10:16:29;;;;;;;18.45;12.75;;;31.90;52.80;;;;;;4974150;28;20217;-79
2021/03/31 10:19:15;;;;;;;17.58;12.57;;;32.60;54.80;;;;;;4980293;28;20209;-79
2021/03/31 10:22:05;;;;;;;17.30;13.73;;;33.30;52.20;;;;;;4978184;28;20229;-80
2021/03/31 10:24:51;;;;;;;19.45;15.02;;;34.00;50.80;;;;;;4975010;28;20280;-78
2021/03/31 10:27:43;;;;;;;19.20;16.08;;;34.60;44.60;;;;;;4979514;28;20217;-79
2021/03/31 10:30:30;;;;;;;18.95;14.02;;;35.20;42.40;;;;;;4975559;28;20229;-79
2021/03/31 10:33:15;;;;;;;22.17;14.23;;;35.60;44.10;;;;;;4978683;28;20244;-80
2021/03/31 10:36:04;;;;;;;19.13;14.38;;;36.10;45.80;;;;;;4973793;28;20210;-76
2021/03/31 10:39:06;;;;;;;18.70;13.90;;;36.50;45.40;;;;;;4978504;28;20229;-79
2021/03/31 10:48:20;;;;;;;19.67;15.45;;;37.70;44.80;;;;;;4978204;28;20230;-79
2021/03/31 10:51:13;;;;;;;20.48;15.18;;;38.10;40.10;;;;;;4975297;28;20644;-80
2021/03/31 10:54:01;;;;;;;19.00;16.20;;;38.40;40.80;;;;;;4967458;28;20303;-76
2021/03/31 10:56:53;;;;;;;20.08;16.30;;;38.70;38.50;;;;;;4979244;28;20213;-80
2021/03/31 10:59:38;;;;;;;18.52;15.27;;;39.00;40.80;;;;;;4977565;28;20269;-79
2021/03/31 11:02:23;;;;;;;17.38;15.50;;;39.20;40.80;;;;;;4980873;28;20256;-80
2021/03/31 11:05:09;;;;;;;18.77;15.57;;;39.50;39.70;;;;;;4976668;28;20217;-79
2021/03/31 11:07:55;;;;;;;21.42;16.30;;;39.80;39.60;;;;;;4968992;28;20281;-80
2021/03/31 11:10:41;;;;;;;18.63;16.02;;;40.10;37.10;;;;;;4978074;28;20330;-81
2021/03/31 11:13:26;;;;;;;18.50;16.58;;;40.40;39.50;;;;;;4977387;28;20227;-80
2021/03/31 11:16:13;;;;;;;21.17;16.60;;;40.60;37.20;;;;;;4967553;28;20213;-80
2021/03/31 11:19:05;;;;;;;19.85;15.85;;;40.90;38.00;;;;;;4970197;28;20217;-80
2021/03/31 11:28:07;;;;;;;16.50;14.35;;;41.70;36.20;;;;;;4969901;28;20244;-81
2021/03/31 11:30:54;;;;;;;15.48;13.70;;;41.90;34.90;;;;;;4987951;28;20216;-81
2021/03/31 11:33:39;;;;;;;18.05;14.43;;;42.10;35.50;;;;;;4982123;28;20237;-81
2021/03/31 11:36:24;;;;;;;18.38;15.38;;;42.30;35.70;;;;;;4973868;28;20217;-81
2021/03/31 11:39:09;;;;;;;21.13;16.02;;;42.40;35.00;;;;;;4983204;28;20205;-79
2021/03/31 11:41:55;;;;;;;19.13;15.75;;;42.60;36.00;;;;;;4980602;28;20204;-80
2021/03/31 11:44:41;;;;;;;16.65;15.05;;;42.80;36.20;;;;;;4978243;28;20222;-81
2021/03/31 11:47:25;;;;;;;16.75;13.77;;;43.00;36.50;;;;;;4982807;28;20567;-81
2021/03/31 11:50:12;;;;;;;15.63;13.75;;;43.20;36.00;;;;;;4981874;28;20237;-80
2021/03/31 11:52:57;;;;;;;16.52;14.43;;;43.20;34.90;;;;;;4981846;28;20229;-80
2021/03/31 11:55:42;;;;;;;19.73;14.80;;;43.30;34.60;;;;;;4983011;28;20209;-81
2021/03/31 11:58:28;;;;;;;19.05;15.15;;;43.40;34.00;;;;;;4980258;28;20246;-79
2021/03/31 12:01:12;;;;;;;17.05;13.45;;;43.60;33.70;;;;;;4981546;28;20289;-81
2021/03/31 12:03:57;;;;;;;16.17;13.55;;;43.70;33.90;;;;;;4976029;28;20233;-80
2021/03/31 12:06:42;;;;;;;19.80;16.17;;;43.80;33.70;;;;;;4978486;28;20263;-81
2021/03/31 12:09:28;;;;;;;17.10;15.27;;;43.90;31.90;;;;;;4978142;28;20227;-81
2021/03/31 12:12:13;;;;;;;18.20;16.30;;;43.90;33.20;;;;;;4983197;28;20229;-81
2021/03/31 12:14:59;;;;;;;19.05;15.25;;;44.00;34.70;;;;;;4982745;28;20233;-81
2021/03/31 12:17:44;;;;;;;18.70;16.70;;;44.00;35.70;;;;;;4977948;28;20205;-81
2021/03/31 12:20:28;;;;;;;20.02;16.85;;;44.10;34.70;;;;;;4981605;28;20249;-81
2021/03/31 12:23:13;;;;;;;18.13;15.40;;;44.20;33.50;;;;;;4984467;28;20280;-78
2021/03/31 12:25:59;;;;;;;17.50;15.63;;;44.30;35.80;;;;;;4976848;28;20233;-80
2021/03/31 12:28:49;;;;;;;20.02;17.90;;;44.50;32.90;;;;;;4975048;28;20206;-81
2021/03/31 12:31:36;;;;;;;17.92;14.82;;;44.60;31.70;;;;;;4982578;28;20288;-81
2021/03/31 12:34:21;;;;;;;16.58;14.77;;;44.70;36.00;;;;;;4977311;28;20245;-81
2021/03/31 12:37:06;;;;;;;19.83;15.27;;;44.70;36.60;;;;;;4976387;28;20572;-79
2021/03/31 12:39:51;;;;;;;17.20;15.07;;;44.90;37.00;;;;;;4967884;28;20297;-80
2021/03/31 12:42:36;;;;;;;18.88;15.85;;;45.00;34.60;;;;;;4982983;28;20261;-85
2021/03/31 12:45:21;;;;;;;19.05;16.08;;;45.10;32.30;;;;;;4972022;28;20261;-81
2021/03/31 12:48:07;;;;;;;18.75;16.55;;;45.20;31.70;;;;;;4982088;28;20238;-80
2021/03/31 12:50:56;;;;;;;20.85;16.17;;;45.30;34.60;;;;;;4982528;28;20252;-81
2021/03/31 12:53:45;;;;;;;19.17;17.13;;;45.20;33.90;;;;;;4982598;28;20241;-81
2021/03/31 12:56:31;;;;;;;18.48;16.58;;;45.30;34.20;;;;;;4982028;28;20222;-79
2021/03/31 12:59:16;;;;;;;18.25;16.27;;;45.50;34.70;;;;;;4975939;28;20224;-80
2021/03/31 13:02:01;;;;;;;19.55;17.45;;;45.60;35.90;;;;;;4981289;28;20289;-80
2021/03/31 13:04:47;;;;;;;20.50;18.23;;;45.70;34.80;;;;;;4978647;28;20280;-81
2021/03/31 13:07:32;;;;;;;22.25;19.45;;;45.90;35.80;;;;;;4972649;28;20220;-80
2021/03/31 13:10:17;;;;;;;21.48;19.30;;;46.00;34.80;;;;;;4976551;28;20281;-81
2021/03/31 13:13:06;;;;;;;22.00;19.83;;;46.00;33.00;;;;;;4980102;28;20234;-78
2021/03/31 13:15:58;;;;;;;20.75;18.42;;;46.10;32.90;;;;;;4996648;28;20185;-77
2021/03/31 13:22:11;;;;;;;22.10;19.95;;;46.10;34.90;;;;;;4996149;28;20237;-75
2021/03/31 13:25:05;;;;;;;21.85;18.08;;;46.10;34.70;;;;;;5001040;28;20303;-77
2021/03/31 13:28:26;;;;;;;21.40;19.17;;;46.00;33.50;;;;;;4994116;28;20218;-79
2021/03/31 13:31:13;;;;;;;24.35;21.52;;;45.90;33.20;;;;;;4963485;28;20206;-79
2021/03/31 13:34:02;;;;;;;22.65;20.30;;;45.70;31.70;;;;;;4968560;28;20273;-79
2021/03/31 13:36:51;;;;;;;23.50;19.55;;;45.70;32.80;;;;;;4966881;28;20594;-78
2021/03/31 13:39:38;;;;;;;22.40;20.00;;;45.60;36.70;;;;;;4963543;28;20280;-78
2021/03/31 13:42:23;;;;;;;22.92;20.55;;;45.50;35.20;;;;;;4958730;28;20281;-79
2021/03/31 13:45:09;;;;;;;23.83;21.15;;;45.30;35.70;;;;;;4975767;28;20214;-79
2021/03/31 13:47:57;;;;;;;22.80;20.38;;;45.30;33.90;;;;;;4967734;28;20239;-79
2021/03/31 13:50:42;;;;;;;23.90;20.88;;;45.30;36.30;;;;;;4971603;28;20257;-78
2021/03/31 13:53:28;;;;;;;23.23;20.83;;;45.40;36.20;;;;;;4972545;28;20286;-79
2021/03/31 13:56:19;;;;;;;24.42;22.00;;;45.30;34.70;;;;;;4967442;28;20218;-78
2021/03/31 13:59:05;;;;;;;23.42;21.10;;;45.20;35.30;;;;;;4967433;28;20728;-77
2021/03/31 14:01:50;;;;;;;23.90;21.52;;;45.10;35.50;;;;;;4971935;28;20237;-79
2021/03/31 14:04:35;;;;;;;23.92;21.52;;;45.10;36.30;;;;;;4969881;28;20241;-79
2021/03/31 14:07:20;;;;;;;25.05;21.60;;;45.10;34.60;;;;;;4964034;28;20218;-79
2021/03/31 14:10:07;;;;;;;23.50;21.23;;;44.90;35.20;;;;;;4968436;28;20290;-78
2021/03/31 14:12:53;;;;;;;22.20;19.77;;;45.00;36.70;;;;;;4964269;28;20296;-79
2021/03/31 14:15:38;;;;;;;24.52;21.92;;;44.90;36.80;;;;;;4961290;28;20712;-77
2021/03/31 14:18:23;;;;;;;25.08;22.15;;;44.80;35.30;;;;;;4958804;28;20230;-79
2021/03/31 14:21:08;;;;;;;25.98;23.38;;;44.80;35.00;;;;;;4960160;28;20576;-81
2021/03/31 14:23:53;;;;;;;24.75;22.30;;;44.80;35.70;;;;;;4962173;28;20242;-80
2021/03/31 14:26:39;;;;;;;25.15;21.83;;;44.70;35.70;;;;;;4957565;28;20213;-83
2021/03/31 14:29:24;;;;;;;23.73;21.30;;;44.60;36.70;;;;;;4963731;28;20261;-82